createdAt,value
2023-05-11T00:00:39.477Z,20.20
2023-05-11T00:03:06.520Z,21.07
2023-05-11T00:05:33.240Z,21.93
2023-05-11T00:07:59.829Z,22.37
2023-05-11T00:10:27.471Z,21.90
2023-05-11T00:12:54.017Z,23.10
2023-05-11T00:15:20.707Z,22.30
2023-05-11T00:17:47.231Z,22.60
2023-05-11T00:20:13.767Z,21.83
2023-05-11T00:22:41.196Z,22.17
2023-05-11T00:25:08.877Z,22.37
2023-05-11T00:27:35.542Z,22.43
2023-05-11T00:30:02.086Z,22.33
2023-05-11T00:32:28.651Z,21.80
2023-05-11T00:34:55.182Z,21.77
2023-05-11T00:37:21.772Z,21.67
2023-05-11T00:39:48.356Z,22.37
2023-05-11T00:42:14.888Z,23.40
2023-05-11T00:44:41.388Z,23.67
2023-05-11T00:47:08.026Z,22.30
2023-05-11T00:49:34.992Z,22.40
2023-05-11T00:52:02.941Z,23.33
2023-05-11T00:54:30.683Z,22.10
2023-05-11T00:56:57.398Z,21.53
2023-05-11T00:59:23.977Z,22.40
2023-05-11T01:01:50.783Z,23.70
2023-05-11T01:04:17.587Z,23.37
2023-05-11T01:07:06.526Z,23.00
2023-05-11T01:09:44.460Z,23.20
2023-05-11T01:12:26.429Z,22.80
2023-05-11T01:15:10.124Z,22.77
2023-05-11T01:18:07.198Z,23.50
2023-05-11T01:20:34.694Z,23.80
2023-05-11T01:23:39.116Z,23.57
2023-05-11T01:26:33.322Z,21.97
2023-05-11T01:29:16.537Z,24.37
2023-05-11T01:31:47.272Z,23.60
2023-05-11T01:34:19.017Z,23.07
2023-05-11T01:36:53.132Z,24.43
2023-05-11T01:39:25.186Z,24.90
2023-05-11T01:41:54.017Z,24.10
2023-05-11T01:44:22.467Z,24.27
2023-05-11T01:46:49.879Z,26.33
2023-05-11T01:49:18.916Z,24.97
2023-05-11T01:51:49.360Z,26.60
2023-05-11T01:54:19.289Z,25.77
2023-05-11T01:56:47.184Z,25.40
2023-05-11T01:59:14.524Z,27.27
2023-05-11T02:01:41.538Z,26.90
2023-05-11T02:04:10.899Z,26.13
2023-05-11T02:06:39.209Z,27.50
2023-05-11T02:09:09.507Z,27.10
2023-05-11T02:11:38.170Z,25.83
2023-05-11T02:14:06.709Z,27.90
2023-05-11T02:16:35.027Z,27.17
2023-05-11T02:19:02.223Z,27.43
2023-05-11T02:21:31.719Z,27.67
2023-05-11T02:24:00.233Z,28.00
2023-05-11T02:26:26.893Z,28.20
2023-05-11T02:28:53.436Z,26.83
2023-05-11T02:31:25.494Z,28.73
2023-05-11T02:33:55.554Z,29.17
2023-05-11T02:36:24.918Z,28.70
2023-05-11T02:38:58.337Z,29.03
2023-05-11T02:41:28.486Z,27.80
2023-05-11T02:43:58.474Z,27.70
2023-05-11T02:46:32.853Z,28.93
2023-05-11T02:49:01.046Z,27.43
2023-05-11T02:51:34.448Z,29.13
2023-05-11T02:54:02.959Z,29.67
2023-05-11T02:56:30.018Z,29.00
2023-05-11T02:58:56.581Z,28.77
2023-05-11T03:01:24.170Z,29.43
2023-05-11T03:03:51.076Z,29.43
2023-05-11T03:06:17.635Z,29.13
2023-05-11T03:08:44.199Z,29.73
2023-05-11T03:11:12.424Z,30.60
2023-05-11T03:13:39.349Z,28.90
2023-05-11T03:16:06.754Z,30.17
2023-05-11T03:18:34.313Z,29.20
2023-05-11T03:21:01.814Z,28.10
2023-05-11T03:23:29.927Z,29.47
2023-05-11T03:25:58.714Z,30.13
2023-05-11T03:28:26.936Z,28.97
2023-05-11T03:30:54.355Z,30.87
2023-05-11T03:33:21.013Z,31.07
2023-05-11T03:35:49.773Z,30.13
2023-05-11T03:38:16.672Z,29.67
2023-05-11T03:40:44.486Z,30.20
2023-05-11T03:43:14.703Z,28.93
2023-05-11T03:45:43.356Z,30.83
2023-05-11T03:48:11.788Z,30.23
2023-05-11T03:50:39.221Z,32.30
2023-05-11T03:53:06.256Z,32.07
2023-05-11T03:55:33.189Z,31.70
2023-05-11T03:58:00.485Z,31.83
2023-05-11T04:00:28.108Z,32.40
2023-05-11T04:02:54.885Z,31.47
2023-05-11T04:05:21.491Z,32.37
2023-05-11T04:07:48.031Z,32.23
2023-05-11T04:10:14.550Z,31.47
2023-05-11T04:12:41.128Z,30.37
2023-05-11T04:15:08.014Z,30.07
2023-05-11T04:17:34.645Z,31.97
2023-05-11T04:20:01.229Z,30.13
2023-05-11T04:22:27.734Z,30.73
2023-05-11T04:24:54.261Z,31.23
2023-05-11T04:27:20.748Z,32.00
2023-05-11T04:29:48.472Z,31.83
2023-05-11T04:32:15.791Z,31.60
2023-05-11T04:34:42.416Z,30.23
2023-05-11T04:37:09.058Z,31.93
2023-05-11T04:39:35.568Z,32.57
2023-05-11T04:42:02.171Z,47.90
2023-05-11T04:44:28.822Z,33.23
2023-05-11T04:46:56.371Z,31.00
2023-05-11T04:49:23.116Z,30.20
2023-05-11T04:51:49.637Z,29.90
2023-05-11T04:54:16.803Z,29.33
2023-05-11T04:56:43.497Z,29.27
2023-05-11T04:59:10.530Z,28.07
2023-05-11T05:01:37.153Z,26.00
2023-05-11T05:04:03.830Z,25.63
2023-05-11T05:06:32.003Z,25.93
2023-05-11T05:08:58.607Z,27.10
2023-05-11T05:11:25.221Z,25.07
2023-05-11T05:13:51.730Z,25.70
2023-05-11T05:16:18.278Z,25.20
2023-05-11T05:18:44.886Z,26.50
2023-05-11T05:21:11.461Z,26.40
2023-05-11T05:23:37.982Z,25.40
2023-05-11T05:26:04.647Z,25.37
2023-05-11T05:28:31.214Z,25.77
2023-05-11T05:30:58.262Z,25.13
2023-05-11T05:33:24.856Z,23.87
2023-05-11T05:35:51.371Z,24.83
2023-05-11T05:38:17.858Z,22.80
2023-05-11T05:40:44.373Z,23.07
2023-05-11T05:43:11.398Z,22.40
2023-05-11T05:45:38.181Z,21.67
2023-05-11T05:48:06.065Z,22.20
2023-05-11T05:50:33.057Z,22.13
2023-05-11T05:52:59.561Z,21.23
2023-05-11T05:55:26.263Z,22.90
2023-05-11T05:57:52.900Z,21.97
2023-05-11T06:00:19.906Z,23.30
2023-05-11T06:02:46.819Z,22.80
2023-05-11T06:05:13.359Z,24.03
2023-05-11T06:07:39.910Z,24.57
2023-05-11T06:10:06.709Z,23.17
2023-05-11T06:12:33.274Z,23.93
2023-05-11T06:14:59.801Z,24.57
2023-05-11T06:17:28.162Z,24.43
2023-05-11T06:19:54.758Z,24.10
2023-05-11T06:22:21.254Z,24.23
2023-05-11T06:24:47.781Z,23.23
2023-05-11T06:27:16.024Z,23.60
2023-05-11T06:29:44.634Z,23.10
2023-05-11T06:32:11.218Z,23.53
2023-05-11T06:34:39.215Z,22.10
2023-05-11T06:37:05.921Z,24.03
2023-05-11T06:39:35.935Z,22.93
2023-05-11T06:42:05.088Z,23.17
2023-05-11T06:44:34.117Z,23.53
2023-05-11T06:47:01.001Z,23.33
2023-05-11T06:49:27.531Z,22.67
2023-05-11T06:51:54.021Z,21.53
2023-05-11T06:54:20.575Z,22.87
2023-05-11T06:56:47.090Z,21.40
2023-05-11T06:59:13.669Z,20.63
2023-05-11T07:01:40.303Z,19.73
2023-05-11T07:04:06.885Z,20.07
2023-05-11T07:06:33.738Z,20.00
2023-05-11T07:09:00.400Z,18.77
2023-05-11T07:11:27.621Z,19.33
2023-05-11T07:13:54.177Z,17.60
2023-05-11T07:16:20.862Z,16.70
2023-05-11T07:18:47.451Z,16.50
2023-05-11T07:21:14.057Z,17.60
2023-05-11T07:23:40.654Z,17.97
2023-05-11T07:26:09.075Z,16.83
2023-05-11T07:28:38.762Z,17.17
2023-05-11T07:31:05.768Z,16.43
2023-05-11T07:33:34.451Z,16.83
2023-05-11T07:36:00.932Z,16.43
2023-05-11T07:38:27.499Z,17.27
2023-05-11T07:40:54.616Z,17.17
2023-05-11T07:43:21.242Z,15.97
2023-05-11T07:45:47.781Z,16.10
2023-05-11T07:48:14.346Z,16.03
2023-05-11T07:50:42.305Z,16.30
2023-05-11T07:53:09.384Z,15.53
2023-05-11T07:55:35.963Z,15.93
2023-05-11T07:58:02.477Z,16.07
2023-05-11T08:00:29.085Z,16.23
2023-05-11T08:02:56.168Z,15.50
2023-05-11T08:05:22.921Z,15.73
2023-05-11T08:07:49.537Z,15.03
2023-05-11T08:10:16.118Z,16.07
2023-05-11T08:12:42.956Z,16.47
2023-05-11T08:15:09.982Z,15.93
2023-05-11T08:17:37.236Z,17.60
2023-05-11T08:20:06.367Z,17.47
2023-05-11T08:22:32.909Z,16.97
2023-05-11T08:24:59.410Z,16.60
2023-05-11T08:27:25.969Z,18.27
2023-05-11T08:29:52.483Z,17.53
2023-05-11T08:32:19.038Z,17.77
2023-05-11T08:34:45.752Z,17.67
2023-05-11T08:37:12.399Z,17.40
2023-05-11T08:39:47.393Z,17.50
2023-05-11T08:42:16.502Z,16.57
2023-05-11T08:44:44.512Z,17.97
2023-05-11T08:47:22.785Z,15.53
2023-05-11T08:49:52.683Z,18.10
2023-05-11T08:52:19.587Z,16.20
2023-05-11T08:54:46.830Z,16.27
2023-05-11T08:57:14.372Z,17.27
2023-05-11T08:59:44.264Z,17.43
2023-05-11T09:02:18.803Z,17.10
2023-05-11T09:04:48.590Z,17.20
2023-05-11T09:07:17.378Z,17.40
2023-05-11T09:09:49.429Z,17.40
2023-05-11T09:12:16.953Z,17.37
2023-05-11T09:14:44.047Z,17.63
2023-05-11T09:17:10.948Z,17.60
2023-05-11T09:19:38.383Z,18.37
2023-05-11T09:22:06.593Z,18.93
2023-05-11T09:24:33.300Z,18.27
2023-05-11T09:27:10.332Z,18.07
2023-05-11T09:29:37.086Z,18.13
2023-05-11T09:32:04.473Z,17.60
2023-05-11T09:34:31.076Z,17.07
2023-05-11T09:36:57.745Z,18.27
2023-05-11T09:39:38.292Z,18.67
2023-05-11T09:42:14.065Z,19.10
2023-05-11T09:44:41.724Z,19.33
2023-05-11T09:47:19.098Z,20.00
2023-05-11T09:49:47.500Z,20.47
2023-05-11T09:52:18.696Z,21.63
2023-05-11T09:54:47.708Z,19.97
2023-05-11T09:57:27.160Z,20.83
2023-05-11T09:59:54.759Z,21.30
2023-05-11T10:02:23.771Z,20.10
2023-05-11T10:04:52.386Z,20.60
2023-05-11T10:07:33.047Z,20.23
2023-05-11T10:10:05.193Z,20.03
2023-05-11T10:12:33.492Z,21.13
2023-05-11T10:15:08.698Z,18.70
2023-05-11T10:17:36.747Z,19.73
2023-05-11T10:20:05.258Z,20.30
2023-05-11T10:22:32.096Z,20.80
2023-05-11T10:24:59.591Z,20.93
2023-05-11T10:27:26.882Z,20.73
2023-05-11T10:29:53.654Z,22.70
2023-05-11T10:32:21.148Z,21.93
2023-05-11T10:34:50.112Z,21.93
2023-05-11T10:37:17.327Z,20.70
2023-05-11T10:39:47.733Z,21.20
2023-05-11T10:42:27.887Z,21.23
2023-05-11T10:45:12.660Z,19.57
2023-05-11T10:48:08.002Z,20.23
2023-05-11T10:51:09.842Z,19.27
2023-05-11T10:54:17.296Z,15.90
2023-05-11T10:56:58.067Z,15.13
2023-05-11T10:59:30.650Z,15.37
2023-05-11T11:01:59.904Z,14.50
2023-05-11T11:04:51.444Z,14.67
2023-05-11T11:07:19.509Z,14.80
2023-05-11T11:10:00.379Z,13.67
2023-05-11T11:12:29.450Z,14.23
2023-05-11T11:15:06.014Z,14.43
2023-05-11T11:17:34.782Z,14.07
2023-05-11T11:20:04.440Z,13.43
2023-05-11T11:22:41.296Z,13.80
2023-05-11T11:25:09.735Z,14.23
2023-05-11T11:27:45.551Z,14.47
2023-05-11T11:30:25.630Z,14.53
2023-05-11T11:32:53.359Z,13.33
2023-05-11T11:35:40.027Z,14.17
2023-05-11T11:38:08.815Z,14.27
2023-05-11T11:40:49.484Z,13.30
2023-05-11T11:43:24.418Z,12.87
2023-05-11T11:46:00.992Z,11.83
2023-05-11T11:48:36.485Z,11.80
2023-05-11T11:51:09.024Z,13.03
2023-05-11T11:53:40.687Z,12.00
2023-05-11T11:56:28.406Z,12.40
2023-05-11T11:58:59.951Z,11.10
2023-05-11T12:01:37.381Z,10.90
2023-05-11T12:04:22.085Z,11.57
2023-05-11T12:06:57.685Z,10.27
2023-05-11T12:09:24.722Z,11.27
2023-05-11T12:11:52.190Z,11.00
2023-05-11T12:14:19.952Z,12.00
2023-05-11T12:17:13.116Z,10.77
2023-05-11T12:19:40.164Z,10.00
2023-05-11T12:22:06.834Z,10.13
2023-05-11T12:24:33.585Z,10.88
2023-05-11T12:27:04.711Z,10.80
2023-05-11T12:29:32.038Z,10.60
2023-05-11T12:31:59.150Z,9.35
2023-05-11T12:34:25.763Z,10.35
2023-05-11T12:36:54.706Z,10.40
2023-05-11T12:39:23.789Z,9.65
2023-05-11T12:41:52.270Z,10.15
2023-05-11T12:44:20.680Z,9.70
2023-05-11T12:46:48.656Z,8.85
2023-05-11T12:49:24.699Z,8.52
2023-05-11T12:52:07.868Z,9.00
2023-05-11T12:54:39.947Z,9.43
2023-05-11T12:57:24.460Z,9.57
2023-05-11T13:00:12.393Z,8.75
2023-05-11T13:02:51.822Z,8.18
2023-05-11T13:05:23.179Z,8.60
2023-05-11T13:07:58.749Z,8.27
2023-05-11T13:10:28.062Z,7.60
2023-05-11T13:12:56.001Z,8.23
2023-05-11T13:15:24.456Z,8.45
2023-05-11T13:18:02.207Z,7.82
2023-05-11T13:20:35.445Z,7.18
2023-05-11T13:23:07.800Z,7.88
2023-05-11T13:25:54.899Z,7.90
2023-05-11T13:28:24.161Z,7.72
2023-05-11T13:30:51.779Z,8.07
2023-05-11T13:33:18.771Z,8.20
2023-05-11T13:35:46.131Z,8.10
2023-05-11T13:38:13.001Z,8.55
2023-05-11T13:40:39.815Z,7.22
2023-05-11T13:43:07.224Z,8.70
2023-05-11T13:45:33.827Z,7.72
2023-05-11T13:48:00.642Z,8.27
2023-05-11T13:50:27.556Z,7.95
2023-05-11T13:52:54.403Z,8.23
2023-05-11T13:55:21.500Z,7.90
2023-05-11T13:57:48.546Z,8.23
2023-05-11T14:00:15.865Z,8.45
2023-05-11T14:02:43.524Z,8.07
2023-05-11T14:05:10.141Z,7.63
2023-05-11T14:07:47.212Z,8.05
2023-05-11T14:10:15.428Z,7.85
2023-05-11T14:12:42.056Z,8.38
2023-05-11T14:15:09.194Z,7.93
2023-05-11T14:17:36.081Z,8.27
2023-05-11T14:20:03.685Z,7.50
2023-05-11T14:22:30.343Z,8.50
2023-05-11T14:24:56.864Z,9.07
2023-05-11T14:27:23.700Z,8.50
2023-05-11T14:29:51.982Z,8.60
2023-05-11T14:32:19.330Z,8.80
2023-05-11T14:34:46.282Z,8.80
2023-05-11T14:37:13.141Z,8.65
2023-05-11T14:39:41.192Z,8.02
2023-05-11T14:42:08.225Z,8.32
2023-05-11T14:44:34.916Z,7.82
2023-05-11T14:47:01.565Z,7.00
2023-05-11T14:49:28.150Z,7.18
2023-05-11T14:51:54.659Z,7.57
2023-05-11T14:54:21.178Z,6.63
2023-05-11T14:56:53.795Z,6.88
2023-05-11T14:59:26.719Z,6.88
2023-05-11T15:01:53.393Z,6.95
2023-05-11T15:04:20.317Z,7.13
2023-05-11T15:06:47.061Z,7.10
2023-05-11T15:09:13.661Z,6.82
2023-05-11T15:11:40.462Z,8.00
2023-05-11T15:14:07.236Z,8.00
2023-05-11T15:16:38.137Z,7.55
2023-05-11T15:19:05.863Z,7.80
2023-05-11T15:21:32.514Z,8.20
2023-05-11T15:23:59.159Z,8.23
2023-05-11T15:26:25.901Z,9.10
2023-05-11T15:28:52.480Z,8.65
2023-05-11T15:31:19.230Z,8.18
2023-05-11T15:33:45.808Z,8.07
2023-05-11T15:36:13.484Z,7.65
2023-05-11T15:38:40.843Z,8.45
2023-05-11T15:41:07.715Z,8.00
2023-05-11T15:43:34.356Z,8.27
2023-05-11T15:46:03.434Z,8.75
2023-05-11T15:48:30.272Z,8.68
2023-05-11T15:50:59.270Z,8.55
2023-05-11T15:53:25.943Z,8.45
2023-05-11T15:55:55.531Z,8.18
2023-05-11T15:58:22.601Z,8.60
2023-05-11T16:00:49.335Z,8.60
2023-05-11T16:03:16.382Z,9.10
2023-05-11T16:05:43.154Z,8.55
2023-05-11T16:08:09.738Z,8.73
2023-05-11T16:10:36.515Z,9.15
2023-05-11T16:13:03.123Z,8.85
2023-05-11T16:15:31.089Z,9.15
2023-05-11T16:17:58.439Z,9.68
2023-05-11T16:20:25.395Z,9.82
2023-05-11T16:22:52.135Z,9.73
2023-05-11T16:25:18.835Z,9.95
2023-05-11T16:27:45.391Z,9.73
2023-05-11T16:30:23.189Z,10.35
2023-05-11T16:32:52.356Z,9.32
2023-05-11T16:35:19.112Z,9.45
2023-05-11T16:37:47.496Z,10.15
2023-05-11T16:40:14.216Z,10.85
2023-05-11T16:42:40.793Z,12.07
2023-05-11T16:45:07.754Z,12.57
2023-05-11T16:47:34.630Z,12.65
2023-05-11T16:50:01.196Z,12.40
2023-05-11T16:52:27.743Z,12.25
2023-05-11T16:54:55.304Z,12.65
2023-05-11T16:57:24.936Z,13.85
2023-05-11T16:59:51.835Z,13.77
2023-05-11T17:02:19.650Z,13.10
2023-05-11T17:04:46.576Z,13.47
2023-05-11T17:07:14.720Z,14.47
2023-05-11T17:09:41.547Z,14.93
2023-05-11T17:12:10.279Z,15.47
2023-05-11T17:14:37.011Z,15.33
2023-05-11T17:17:07.903Z,13.97
2023-05-11T17:19:34.525Z,15.80
2023-05-11T17:22:01.133Z,15.10
2023-05-11T17:24:28.349Z,15.97
2023-05-11T17:26:54.953Z,15.60
2023-05-11T17:29:21.461Z,15.27
2023-05-11T17:31:50.261Z,15.30
2023-05-11T17:34:18.077Z,14.97
2023-05-11T17:36:45.004Z,16.00
2023-05-11T17:39:11.935Z,16.60
2023-05-11T17:41:38.712Z,15.60
2023-05-11T17:44:05.796Z,16.70
2023-05-11T17:46:32.478Z,17.67
2023-05-11T17:48:59.196Z,16.57
2023-05-11T17:51:25.745Z,17.23
2023-05-11T17:53:52.394Z,17.27
2023-05-11T17:56:19.584Z,16.67
2023-05-11T17:58:46.152Z,18.77
2023-05-11T18:01:13.987Z,18.37
2023-05-11T18:03:41.530Z,18.13
2023-05-11T18:06:08.436Z,20.17
2023-05-11T18:08:36.514Z,19.57
2023-05-11T18:11:03.461Z,19.27
2023-05-11T18:13:31.387Z,18.30
2023-05-11T18:16:00.732Z,19.90
2023-05-11T18:18:27.308Z,20.33
2023-05-11T18:20:54.062Z,20.67
2023-05-11T18:23:20.703Z,19.73
2023-05-11T18:25:48.275Z,21.30
2023-05-11T18:28:14.789Z,21.07
2023-05-11T18:30:41.380Z,21.50
2023-05-11T18:33:08.153Z,20.43
2023-05-11T18:35:34.958Z,21.90
2023-05-11T18:38:04.017Z,22.47
2023-05-11T18:40:30.541Z,22.13
2023-05-11T18:42:57.092Z,24.33
2023-05-11T18:45:23.848Z,23.63
2023-05-11T18:47:50.938Z,23.80
2023-05-11T18:50:17.649Z,23.27
2023-05-11T18:52:44.310Z,26.73
2023-05-11T18:55:10.864Z,27.53
2023-05-11T18:57:39.287Z,27.10
2023-05-11T19:00:06.935Z,25.83
2023-05-11T19:02:34.134Z,26.97
2023-05-11T19:05:01.216Z,26.97
2023-05-11T19:07:28.365Z,26.57
2023-05-11T19:09:55.182Z,25.87
2023-05-11T19:12:22.111Z,27.93
2023-05-11T19:14:48.640Z,26.70
2023-05-11T19:17:15.556Z,26.00
2023-05-11T19:19:42.094Z,27.53
2023-05-11T19:22:09.355Z,28.30
2023-05-11T19:24:36.069Z,29.73
2023-05-11T19:27:07.221Z,26.63
2023-05-11T19:29:34.766Z,28.80
2023-05-11T19:32:01.516Z,28.73
2023-05-11T19:34:28.297Z,30.17
2023-05-11T19:36:54.822Z,30.70
2023-05-11T19:39:21.430Z,30.80
2023-05-11T19:41:47.983Z,29.43
2023-05-11T19:44:14.494Z,28.40
2023-05-11T19:46:46.168Z,28.80
2023-05-11T19:49:13.867Z,29.07
2023-05-11T19:51:40.552Z,30.80
2023-05-11T19:54:07.197Z,30.10
2023-05-11T19:56:33.810Z,29.63
2023-05-11T19:59:01.371Z,31.50
2023-05-11T20:01:28.183Z,29.13
2023-05-11T20:03:54.888Z,30.40
2023-05-11T20:06:21.514Z,30.97
2023-05-11T20:08:48.889Z,29.27
2023-05-11T20:11:15.639Z,29.93
2023-05-11T20:13:43.824Z,29.80
2023-05-11T20:16:10.590Z,29.73
2023-05-11T20:18:37.610Z,30.50
2023-05-11T20:21:04.224Z,28.63
2023-05-11T20:23:30.804Z,30.03
2023-05-11T20:25:57.437Z,29.23
2023-05-11T20:28:27.059Z,29.30
2023-05-11T20:30:56.058Z,28.70
2023-05-11T20:35:53.459Z,29.33
2023-05-11T20:38:20.440Z,27.47
2023-05-11T20:40:47.192Z,30.10
2023-05-11T20:43:14.904Z,28.53
2023-05-11T20:45:42.177Z,29.80
2023-05-11T20:48:08.915Z,29.83
2023-05-11T20:50:35.596Z,28.90
2023-05-11T20:53:02.416Z,29.33
2023-05-11T20:55:28.991Z,29.90
2023-05-11T20:57:55.640Z,29.47
2023-05-11T21:00:22.548Z,30.03
2023-05-11T21:02:49.749Z,29.07
2023-05-11T21:05:16.442Z,30.23
2023-05-11T21:07:42.984Z,30.93
2023-05-11T21:10:12.449Z,31.00
2023-05-11T21:12:39.109Z,29.67
2023-05-11T21:15:07.189Z,29.73
2023-05-11T21:17:36.528Z,33.30
2023-05-11T21:20:05.111Z,47.93
2023-05-11T21:22:38.339Z,33.20
2023-05-11T21:25:05.777Z,33.20
2023-05-11T21:27:32.373Z,33.80
2023-05-11T21:29:58.914Z,33.40
2023-05-11T21:32:25.605Z,34.80
2023-05-11T21:34:52.430Z,33.90
2023-05-11T21:37:20.312Z,34.70
2023-05-11T21:39:50.337Z,34.80
2023-05-11T21:42:17.108Z,32.90
2023-05-11T21:44:43.676Z,30.10
2023-05-11T21:47:10.708Z,31.37
2023-05-11T21:49:37.269Z,32.57
2023-05-11T21:52:03.996Z,33.17
2023-05-11T21:54:30.608Z,34.20
2023-05-11T21:56:57.152Z,35.33
2023-05-11T21:59:26.558Z,34.63
2023-05-11T22:01:56.981Z,34.03
2023-05-11T22:04:26.086Z,33.60
2023-05-11T22:06:52.777Z,36.90
2023-05-11T22:09:19.291Z,36.30
2023-05-11T22:11:45.923Z,36.87
2023-05-11T22:14:12.454Z,39.50
2023-05-11T22:16:39.008Z,40.17
2023-05-11T22:19:06.022Z,39.50
2023-05-11T22:21:32.605Z,37.83
2023-05-11T22:23:59.108Z,38.50
2023-05-11T22:26:26.555Z,35.47
2023-05-11T22:28:53.111Z,38.00
2023-05-11T22:31:19.672Z,36.53
2023-05-11T22:33:46.212Z,35.87
2023-05-11T22:36:12.732Z,40.27
2023-05-11T22:38:39.252Z,36.80
2023-05-11T22:41:06.281Z,37.53
2023-05-11T22:43:32.786Z,36.93
2023-05-11T22:45:59.529Z,39.57
2023-05-11T22:48:26.091Z,38.60
2023-05-11T22:50:53.631Z,39.40
2023-05-11T22:53:20.863Z,38.03
2023-05-11T22:55:47.599Z,37.80
2023-05-11T22:58:14.265Z,40.17
2023-05-11T23:00:40.777Z,38.20
2023-05-11T23:03:08.086Z,38.97
2023-05-11T23:05:35.275Z,39.10
2023-05-11T23:08:01.772Z,38.87
2023-05-11T23:10:28.627Z,39.37
2023-05-11T23:12:55.971Z,38.73
2023-05-11T23:15:22.476Z,40.10
2023-05-11T23:17:49.199Z,40.30
2023-05-11T23:20:16.448Z,41.17
2023-05-11T23:22:43.320Z,40.93
2023-05-11T23:25:10.364Z,41.77
2023-05-11T23:27:36.865Z,41.90
2023-05-11T23:30:03.832Z,41.13
2023-05-11T23:32:30.436Z,42.07
2023-05-11T23:34:56.953Z,41.57
2023-05-11T23:37:23.674Z,40.07
2023-05-11T23:39:50.212Z,40.23
2023-05-11T23:42:16.748Z,40.87
2023-05-11T23:44:43.256Z,41.80
2023-05-11T23:47:10.144Z,41.73
2023-05-11T23:49:36.735Z,41.43
2023-05-11T23:52:03.413Z,45.70
2023-05-11T23:54:29.917Z,44.57
2023-05-11T23:56:56.448Z,40.97
2023-05-11T23:59:22.976Z,40.27
